Eight Mile, Alabama
Current Conditions -  °F | °C
As of 3:10 AM on Sunday 21 Dec 2014 (Local Time) from KMOB Reporting Station
Overcast Overcast  
Wind Chill: 47°   Ceiling: 600
Heat Index: 49°   Visibility: 8mi
Dew Point: 48°   Wind: 5mph
Humidity: 97%   Direction: 30°NNE
Pressure: 30.13"   Gusts: NA
Location:  30.76°N, 88.13°W
Report Text: KMOB 210910Z AUTO 03004KT 8SM BKN006 OVC024 09/09 A3013 RMK AO2 T00940089 $
Loading
Personal Weather Stations






























Interactive Weather Map New forecast layout! Learn more

10-Day Weather Forecast

Advertisements
Track Severe Weather on mobile